sensor_id;sensor_type;location;lat;lon;timestamp;P1;durP1;ratioP1;P2;durP2;ratioP2
16969;SDS011;8601;48.718;8.992;2023-02-14T00:00:31;16.13;;;13.40;;
16969;SDS011;8601;48.718;8.992;2023-02-14T00:02:58;15.97;;;13.87;;
16969;SDS011;8601;48.718;8.992;2023-02-14T00:05:27;18.07;;;13.87;;
16969;SDS011;8601;48.718;8.992;2023-02-14T00:07:54;17.13;;;14.03;;
16969;SDS011;8601;48.718;8.992;2023-02-14T00:10:21;19.13;;;13.37;;
16969;SDS011;8601;48.718;8.992;2023-02-14T00:12:48;17.77;;;14.40;;
16969;SDS011;8601;48.718;8.992;2023-02-14T00:15:21;16.93;;;13.83;;
16969;SDS011;8601;48.718;8.992;2023-02-14T00:17:48;16.57;;;13.27;;
16969;SDS011;8601;48.718;8.992;2023-02-14T00:20:16;17.13;;;14.00;;
16969;SDS011;8601;48.718;8.992;2023-02-14T00:22:43;17.97;;;14.00;;
16969;SDS011;8601;48.718;8.992;2023-02-14T00:25:11;17.20;;;13.93;;
16969;SDS011;8601;48.718;8.992;2023-02-14T00:27:38;20.13;;;15.20;;
16969;SDS011;8601;48.718;8.992;2023-02-14T00:30:06;19.07;;;15.03;;
16969;SDS011;8601;48.718;8.992;2023-02-14T00:32:38;19.97;;;15.10;;
16969;SDS011;8601;48.718;8.992;2023-02-14T00:35:06;19.43;;;15.07;;
16969;SDS011;8601;48.718;8.992;2023-02-14T00:37:33;18.53;;;14.67;;
16969;SDS011;8601;48.718;8.992;2023-02-14T00:40:00;20.67;;;15.33;;
16969;SDS011;8601;48.718;8.992;2023-02-14T00:42:27;19.70;;;16.53;;
16969;SDS011;8601;48.718;8.992;2023-02-14T00:44:54;21.17;;;16.53;;
16969;SDS011;8601;48.718;8.992;2023-02-14T00:47:22;20.17;;;16.13;;
16969;SDS011;8601;48.718;8.992;2023-02-14T00:49:51;21.17;;;15.27;;
16969;SDS011;8601;48.718;8.992;2023-02-14T00:52:18;18.97;;;15.07;;
16969;SDS011;8601;48.718;8.992;2023-02-14T00:54:45;19.47;;;15.80;;
16969;SDS011;8601;48.718;8.992;2023-02-14T00:57:11;22.53;;;16.87;;
16969;SDS011;8601;48.718;8.992;2023-02-14T00:59:38;19.90;;;15.20;;
16969;SDS011;8601;48.718;8.992;2023-02-14T01:02:05;21.07;;;16.80;;
16969;SDS011;8601;48.718;8.992;2023-02-14T01:04:32;23.63;;;17.83;;
16969;SDS011;8601;48.718;8.992;2023-02-14T01:07:00;21.17;;;16.63;;
16969;SDS011;8601;48.718;8.992;2023-02-14T01:09:27;20.37;;;16.80;;
16969;SDS011;8601;48.718;8.992;2023-02-14T01:11:54;22.90;;;17.10;;
16969;SDS011;8601;48.718;8.992;2023-02-14T01:14:22;22.47;;;17.50;;
16969;SDS011;8601;48.718;8.992;2023-02-14T01:16:49;24.33;;;16.83;;
16969;SDS011;8601;48.718;8.992;2023-02-14T01:19:16;26.10;;;18.17;;
16969;SDS011;8601;48.718;8.992;2023-02-14T01:21:43;24.43;;;18.13;;
16969;SDS011;8601;48.718;8.992;2023-02-14T01:24:11;22.40;;;17.27;;
16969;SDS011;8601;48.718;8.992;2023-02-14T01:26:38;23.93;;;18.23;;
16969;SDS011;8601;48.718;8.992;2023-02-14T01:29:05;25.63;;;19.90;;
16969;SDS011;8601;48.718;8.992;2023-02-14T01:31:33;24.10;;;18.23;;
16969;SDS011;8601;48.718;8.992;2023-02-14T01:34:01;21.57;;;17.47;;
16969;SDS011;8601;48.718;8.992;2023-02-14T01:36:30;25.47;;;17.37;;
16969;SDS011;8601;48.718;8.992;2023-02-14T01:38:59;25.77;;;17.50;;
16969;SDS011;8601;48.718;8.992;2023-02-14T01:41:29;24.87;;;18.07;;
16969;SDS011;8601;48.718;8.992;2023-02-14T01:43:58;24.43;;;19.13;;
16969;SDS011;8601;48.718;8.992;2023-02-14T01:46:27;25.00;;;18.70;;
16969;SDS011;8601;48.718;8.992;2023-02-14T01:48:58;27.10;;;19.13;;
16969;SDS011;8601;48.718;8.992;2023-02-14T01:51:28;24.00;;;18.90;;
16969;SDS011;8601;48.718;8.992;2023-02-14T01:53:56;23.73;;;18.13;;
16969;SDS011;8601;48.718;8.992;2023-02-14T01:56:25;22.67;;;17.50;;
16969;SDS011;8601;48.718;8.992;2023-02-14T01:58:57;23.00;;;17.43;;
16969;SDS011;8601;48.718;8.992;2023-02-14T02:01:27;23.10;;;17.63;;
16969;SDS011;8601;48.718;8.992;2023-02-14T02:03:57;23.50;;;17.27;;
16969;SDS011;8601;48.718;8.992;2023-02-14T02:06:28;21.13;;;16.37;;
16969;SDS011;8601;48.718;8.992;2023-02-14T02:09:01;20.37;;;15.63;;
16969;SDS011;8601;48.718;8.992;2023-02-14T02:11:34;20.80;;;16.80;;
16969;SDS011;8601;48.718;8.992;2023-02-14T02:14:03;22.77;;;17.47;;
16969;SDS011;8601;48.718;8.992;2023-02-14T02:16:37;22.17;;;17.90;;
16969;SDS011;8601;48.718;8.992;2023-02-14T02:19:46;22.57;;;16.70;;
16969;SDS011;8601;48.718;8.992;2023-02-14T02:22:41;20.77;;;15.97;;
16969;SDS011;8601;48.718;8.992;2023-02-14T02:25:37;18.70;;;15.17;;
16969;SDS011;8601;48.718;8.992;2023-02-14T02:28:38;17.20;;;14.93;;
16969;SDS011;8601;48.718;8.992;2023-02-14T02:31:29;19.23;;;15.40;;
16969;SDS011;8601;48.718;8.992;2023-02-14T02:34:13;18.10;;;14.90;;
16969;SDS011;8601;48.718;8.992;2023-02-14T02:37:02;19.27;;;14.90;;
16969;SDS011;8601;48.718;8.992;2023-02-14T02:39:45;19.40;;;14.77;;
16969;SDS011;8601;48.718;8.992;2023-02-14T02:42:26;16.50;;;13.80;;
16969;SDS011;8601;48.718;8.992;2023-02-14T02:45:03;18.50;;;15.50;;
16969;SDS011;8601;48.718;8.992;2023-02-14T02:47:37;19.50;;;13.63;;
16969;SDS011;8601;48.718;8.992;2023-02-14T02:50:12;17.60;;;13.93;;
16969;SDS011;8601;48.718;8.992;2023-02-14T02:53:09;16.70;;;14.13;;
16969;SDS011;8601;48.718;8.992;2023-02-14T02:55:44;18.97;;;15.30;;
16969;SDS011;8601;48.718;8.992;2023-02-14T02:58:48;17.73;;;14.83;;
16969;SDS011;8601;48.718;8.992;2023-02-14T03:01:20;16.77;;;14.47;;
16969;SDS011;8601;48.718;8.992;2023-02-14T03:03:52;17.93;;;14.33;;
16969;SDS011;8601;48.718;8.992;2023-02-14T03:06:40;17.33;;;14.30;;
16969;SDS011;8601;48.718;8.992;2023-02-14T03:09:12;18.87;;;15.37;;
16969;SDS011;8601;48.718;8.992;2023-02-14T03:12:18;17.57;;;14.40;;
16969;SDS011;8601;48.718;8.992;2023-02-14T03:14:55;21.73;;;15.67;;
16969;SDS011;8601;48.718;8.992;2023-02-14T03:17:28;19.77;;;15.37;;
16969;SDS011;8601;48.718;8.992;2023-02-14T03:20:04;18.40;;;14.20;;
16969;SDS011;8601;48.718;8.992;2023-02-14T03:22:42;18.73;;;14.90;;
16969;SDS011;8601;48.718;8.992;2023-02-14T03:25:19;23.27;;;15.50;;
16969;SDS011;8601;48.718;8.992;2023-02-14T03:27:58;18.17;;;15.20;;
16969;SDS011;8601;48.718;8.992;2023-02-14T03:30:35;21.03;;;16.60;;
16969;SDS011;8601;48.718;8.992;2023-02-14T03:33:10;21.87;;;16.10;;
16969;SDS011;8601;48.718;8.992;2023-02-14T03:35:44;20.67;;;16.87;;
16969;SDS011;8601;48.718;8.992;2023-02-14T03:38:19;25.00;;;18.67;;
16969;SDS011;8601;48.718;8.992;2023-02-14T03:40:51;26.13;;;18.97;;
16969;SDS011;8601;48.718;8.992;2023-02-14T03:43:23;23.90;;;17.47;;
16969;SDS011;8601;48.718;8.992;2023-02-14T03:45:54;23.57;;;17.27;;
16969;SDS011;8601;48.718;8.992;2023-02-14T03:48:27;24.20;;;18.10;;
16969;SDS011;8601;48.718;8.992;2023-02-14T03:50:56;22.57;;;17.53;;
16969;SDS011;8601;48.718;8.992;2023-02-14T03:53:27;24.23;;;17.43;;
16969;SDS011;8601;48.718;8.992;2023-02-14T03:56:00;21.10;;;17.07;;
16969;SDS011;8601;48.718;8.992;2023-02-14T03:58:31;23.00;;;17.07;;
16969;SDS011;8601;48.718;8.992;2023-02-14T04:01:05;25.10;;;16.87;;
16969;SDS011;8601;48.718;8.992;2023-02-14T04:03:36;22.40;;;17.13;;
16969;SDS011;8601;48.718;8.992;2023-02-14T04:06:05;22.10;;;17.20;;
16969;SDS011;8601;48.718;8.992;2023-02-14T04:08:33;23.00;;;16.77;;
16969;SDS011;8601;48.718;8.992;2023-02-14T04:11:01;21.40;;;16.53;;
16969;SDS011;8601;48.718;8.992;2023-02-14T04:13:29;21.60;;;16.93;;
16969;SDS011;8601;48.718;8.992;2023-02-14T04:15:57;20.90;;;16.13;;
16969;SDS011;8601;48.718;8.992;2023-02-14T04:18:23;22.87;;;16.33;;
16969;SDS011;8601;48.718;8.992;2023-02-14T04:21:08;18.57;;;14.93;;
16969;SDS011;8601;48.718;8.992;2023-02-14T04:23:36;16.83;;;13.40;;
16969;SDS011;8601;48.718;8.992;2023-02-14T04:26:04;18.67;;;15.43;;
16969;SDS011;8601;48.718;8.992;2023-02-14T04:28:31;18.80;;;14.73;;
16969;SDS011;8601;48.718;8.992;2023-02-14T04:30:59;18.23;;;14.07;;
16969;SDS011;8601;48.718;8.992;2023-02-14T04:33:26;16.80;;;14.23;;
16969;SDS011;8601;48.718;8.992;2023-02-14T04:35:53;18.00;;;14.10;;
16969;SDS011;8601;48.718;8.992;2023-02-14T04:38:20;20.77;;;13.90;;
16969;SDS011;8601;48.718;8.992;2023-02-14T04:40:47;17.57;;;13.43;;
16969;SDS011;8601;48.718;8.992;2023-02-14T04:43:16;17.30;;;13.30;;
16969;SDS011;8601;48.718;8.992;2023-02-14T04:45:43;16.87;;;14.37;;
16969;SDS011;8601;48.718;8.992;2023-02-14T04:48:11;21.07;;;15.40;;
16969;SDS011;8601;48.718;8.992;2023-02-14T04:50:38;17.57;;;14.83;;
16969;SDS011;8601;48.718;8.992;2023-02-14T04:53:05;20.63;;;16.30;;
16969;SDS011;8601;48.718;8.992;2023-02-14T04:55:32;21.57;;;17.00;;
16969;SDS011;8601;48.718;8.992;2023-02-14T04:57:59;17.03;;;14.60;;
16969;SDS011;8601;48.718;8.992;2023-02-14T05:00:27;19.77;;;14.87;;
16969;SDS011;8601;48.718;8.992;2023-02-14T05:02:54;16.97;;;14.73;;
16969;SDS011;8601;48.718;8.992;2023-02-14T05:05:21;20.07;;;15.13;;
16969;SDS011;8601;48.718;8.992;2023-02-14T05:07:48;18.43;;;13.93;;
16969;SDS011;8601;48.718;8.992;2023-02-14T05:10:15;16.33;;;14.33;;
16969;SDS011;8601;48.718;8.992;2023-02-14T05:12:43;19.70;;;14.17;;
16969;SDS011;8601;48.718;8.992;2023-02-14T05:15:10;17.27;;;13.83;;
16969;SDS011;8601;48.718;8.992;2023-02-14T05:17:39;17.23;;;13.67;;
16969;SDS011;8601;48.718;8.992;2023-02-14T05:20:06;18.07;;;14.57;;
16969;SDS011;8601;48.718;8.992;2023-02-14T05:22:34;17.93;;;14.90;;
16969;SDS011;8601;48.718;8.992;2023-02-14T05:25:00;16.20;;;13.40;;
16969;SDS011;8601;48.718;8.992;2023-02-14T05:27:27;18.83;;;15.23;;
16969;SDS011;8601;48.718;8.992;2023-02-14T05:29:55;18.37;;;14.30;;
16969;SDS011;8601;48.718;8.992;2023-02-14T05:32:22;18.20;;;13.93;;
16969;SDS011;8601;48.718;8.992;2023-02-14T05:34:50;18.77;;;14.57;;
16969;SDS011;8601;48.718;8.992;2023-02-14T05:37:18;18.37;;;14.83;;
16969;SDS011;8601;48.718;8.992;2023-02-14T05:39:44;20.27;;;15.30;;
16969;SDS011;8601;48.718;8.992;2023-02-14T05:42:12;17.43;;;14.03;;
16969;SDS011;8601;48.718;8.992;2023-02-14T05:44:40;21.83;;;16.83;;
16969;SDS011;8601;48.718;8.992;2023-02-14T05:47:06;20.53;;;14.77;;
16969;SDS011;8601;48.718;8.992;2023-02-14T05:49:33;19.53;;;15.07;;
16969;SDS011;8601;48.718;8.992;2023-02-14T05:52:02;19.00;;;14.30;;
16969;SDS011;8601;48.718;8.992;2023-02-14T05:54:29;18.40;;;14.63;;
16969;SDS011;8601;48.718;8.992;2023-02-14T05:56:56;17.73;;;14.57;;
16969;SDS011;8601;48.718;8.992;2023-02-14T05:59:23;18.07;;;15.23;;
16969;SDS011;8601;48.718;8.992;2023-02-14T06:01:50;18.47;;;14.77;;
16969;SDS011;8601;48.718;8.992;2023-02-14T06:04:16;16.90;;;13.90;;
16969;SDS011;8601;48.718;8.992;2023-02-14T06:06:43;20.33;;;15.73;;
16969;SDS011;8601;48.718;8.992;2023-02-14T06:09:11;22.40;;;16.57;;
16969;SDS011;8601;48.718;8.992;2023-02-14T06:11:38;18.87;;;15.33;;
16969;SDS011;8601;48.718;8.992;2023-02-14T06:14:05;19.67;;;15.53;;
16969;SDS011;8601;48.718;8.992;2023-02-14T06:16:32;20.57;;;16.13;;
16969;SDS011;8601;48.718;8.992;2023-02-14T06:19:00;19.13;;;15.03;;
16969;SDS011;8601;48.718;8.992;2023-02-14T06:21:27;18.00;;;14.80;;
16969;SDS011;8601;48.718;8.992;2023-02-14T06:23:54;20.53;;;15.70;;
16969;SDS011;8601;48.718;8.992;2023-02-14T06:26:23;19.03;;;15.47;;
16969;SDS011;8601;48.718;8.992;2023-02-14T06:28:52;13.67;;;8.77;;
16969;SDS011;8601;48.718;8.992;2023-02-14T06:31:20;21.73;;;16.27;;
16969;SDS011;8601;48.718;8.992;2023-02-14T06:33:47;17.47;;;14.07;;
16969;SDS011;8601;48.718;8.992;2023-02-14T06:36:14;17.93;;;14.90;;
16969;SDS011;8601;48.718;8.992;2023-02-14T06:38:41;22.87;;;16.13;;
16969;SDS011;8601;48.718;8.992;2023-02-14T06:41:09;20.17;;;15.83;;
16969;SDS011;8601;48.718;8.992;2023-02-14T06:43:38;21.90;;;16.43;;
16969;SDS011;8601;48.718;8.992;2023-02-14T06:46:05;20.77;;;15.63;;
16969;SDS011;8601;48.718;8.992;2023-02-14T06:48:32;21.87;;;16.37;;
16969;SDS011;8601;48.718;8.992;2023-02-14T06:50:59;23.30;;;17.17;;
16969;SDS011;8601;48.718;8.992;2023-02-14T06:53:26;21.43;;;16.73;;
16969;SDS011;8601;48.718;8.992;2023-02-14T06:55:53;24.80;;;18.33;;
16969;SDS011;8601;48.718;8.992;2023-02-14T06:58:20;26.13;;;17.73;;
16969;SDS011;8601;48.718;8.992;2023-02-14T07:00:48;25.23;;;18.17;;
16969;SDS011;8601;48.718;8.992;2023-02-14T07:03:15;25.47;;;17.83;;
16969;SDS011;8601;48.718;8.992;2023-02-14T07:05:42;26.30;;;18.73;;
16969;SDS011;8601;48.718;8.992;2023-02-14T07:08:10;24.60;;;17.33;;
16969;SDS011;8601;48.718;8.992;2023-02-14T07:10:37;28.87;;;20.33;;
16969;SDS011;8601;48.718;8.992;2023-02-14T07:13:04;20.60;;;15.07;;
16969;SDS011;8601;48.718;8.992;2023-02-14T07:15:31;19.23;;;12.63;;
16969;SDS011;8601;48.718;8.992;2023-02-14T07:18:00;19.57;;;15.27;;
16969;SDS011;8601;48.718;8.992;2023-02-14T07:20:28;18.90;;;15.30;;
16969;SDS011;8601;48.718;8.992;2023-02-14T07:22:54;20.43;;;15.83;;
16969;SDS011;8601;48.718;8.992;2023-02-14T07:25:21;23.63;;;19.03;;
16969;SDS011;8601;48.718;8.992;2023-02-14T07:27:48;29.90;;;23.87;;
16969;SDS011;8601;48.718;8.992;2023-02-14T07:30:15;24.70;;;21.13;;
16969;SDS011;8601;48.718;8.992;2023-02-14T07:32:42;26.77;;;21.60;;
16969;SDS011;8601;48.718;8.992;2023-02-14T07:35:11;27.43;;;19.30;;
16969;SDS011;8601;48.718;8.992;2023-02-14T07:37:38;22.93;;;19.10;;
16969;SDS011;8601;48.718;8.992;2023-02-14T07:40:05;23.77;;;19.47;;
16969;SDS011;8601;48.718;8.992;2023-02-14T07:42:33;24.43;;;19.33;;
16969;SDS011;8601;48.718;8.992;2023-02-14T07:44:59;28.60;;;19.73;;
16969;SDS011;8601;48.718;8.992;2023-02-14T07:47:28;25.57;;;19.13;;
16969;SDS011;8601;48.718;8.992;2023-02-14T07:49:55;24.97;;;19.33;;
16969;SDS011;8601;48.718;8.992;2023-02-14T07:52:23;26.10;;;21.07;;
16969;SDS011;8601;48.718;8.992;2023-02-14T07:54:50;29.50;;;21.40;;
16969;SDS011;8601;48.718;8.992;2023-02-14T07:57:17;27.50;;;21.40;;
16969;SDS011;8601;48.718;8.992;2023-02-14T07:59:45;25.30;;;19.53;;
16969;SDS011;8601;48.718;8.992;2023-02-14T08:02:12;27.27;;;19.93;;
16969;SDS011;8601;48.718;8.992;2023-02-14T08:04:39;25.97;;;19.73;;
16969;SDS011;8601;48.718;8.992;2023-02-14T08:07:06;24.50;;;18.80;;
16969;SDS011;8601;48.718;8.992;2023-02-14T08:09:35;27.67;;;20.23;;
16969;SDS011;8601;48.718;8.992;2023-02-14T08:12:02;24.53;;;18.53;;
16969;SDS011;8601;48.718;8.992;2023-02-14T08:14:47;27.60;;;19.40;;
16969;SDS011;8601;48.718;8.992;2023-02-14T08:17:14;29.47;;;19.83;;
16969;SDS011;8601;48.718;8.992;2023-02-14T08:19:40;25.93;;;19.57;;
16969;SDS011;8601;48.718;8.992;2023-02-14T08:22:08;25.03;;;19.83;;
16969;SDS011;8601;48.718;8.992;2023-02-14T08:24:36;28.13;;;20.83;;
16969;SDS011;8601;48.718;8.992;2023-02-14T08:27:03;24.73;;;18.47;;
16969;SDS011;8601;48.718;8.992;2023-02-14T08:29:30;26.90;;;20.07;;
16969;SDS011;8601;48.718;8.992;2023-02-14T08:31:57;27.00;;;19.97;;
16969;SDS011;8601;48.718;8.992;2023-02-14T08:34:24;26.73;;;20.77;;
16969;SDS011;8601;48.718;8.992;2023-02-14T08:36:53;26.87;;;20.20;;
16969;SDS011;8601;48.718;8.992;2023-02-14T08:39:20;27.17;;;19.90;;
16969;SDS011;8601;48.718;8.992;2023-02-14T08:41:48;27.27;;;19.20;;
16969;SDS011;8601;48.718;8.992;2023-02-14T08:44:15;24.57;;;19.37;;
16969;SDS011;8601;48.718;8.992;2023-02-14T08:46:42;27.63;;;20.03;;
16969;SDS011;8601;48.718;8.992;2023-02-14T08:49:09;26.17;;;18.47;;
16969;SDS011;8601;48.718;8.992;2023-02-14T08:51:36;24.57;;;19.03;;
16969;SDS011;8601;48.718;8.992;2023-02-14T08:54:03;28.33;;;19.37;;
16969;SDS011;8601;48.718;8.992;2023-02-14T08:56:30;29.43;;;19.73;;
16969;SDS011;8601;48.718;8.992;2023-02-14T08:58:58;28.47;;;20.53;;
16969;SDS011;8601;48.718;8.992;2023-02-14T09:01:25;30.43;;;21.47;;
16969;SDS011;8601;48.718;8.992;2023-02-14T09:03:53;29.23;;;19.93;;
16969;SDS011;8601;48.718;8.992;2023-02-14T09:06:20;26.60;;;19.33;;
16969;SDS011;8601;48.718;8.992;2023-02-14T09:08:47;25.20;;;18.67;;
16969;SDS011;8601;48.718;8.992;2023-02-14T09:11:16;26.17;;;19.73;;
16969;SDS011;8601;48.718;8.992;2023-02-14T09:13:46;25.50;;;19.47;;
16969;SDS011;8601;48.718;8.992;2023-02-14T09:16:16;26.30;;;19.33;;
16969;SDS011;8601;48.718;8.992;2023-02-14T09:18:44;26.60;;;17.87;;
16969;SDS011;8601;48.718;8.992;2023-02-14T09:21:13;26.50;;;18.57;;
16969;SDS011;8601;48.718;8.992;2023-02-14T09:23:42;26.97;;;19.67;;
16969;SDS011;8601;48.718;8.992;2023-02-14T09:26:10;26.20;;;18.43;;
16969;SDS011;8601;48.718;8.992;2023-02-14T09:28:38;24.80;;;18.90;;
16969;SDS011;8601;48.718;8.992;2023-02-14T09:31:09;26.90;;;18.27;;
16969;SDS011;8601;48.718;8.992;2023-02-14T09:33:39;25.20;;;18.17;;
16969;SDS011;8601;48.718;8.992;2023-02-14T09:36:07;25.80;;;18.53;;
16969;SDS011;8601;48.718;8.992;2023-02-14T09:38:37;26.83;;;18.70;;
16969;SDS011;8601;48.718;8.992;2023-02-14T09:41:04;22.73;;;16.83;;
16969;SDS011;8601;48.718;8.992;2023-02-14T09:43:33;25.37;;;17.47;;
16969;SDS011;8601;48.718;8.992;2023-02-14T09:46:10;24.43;;;17.63;;
16969;SDS011;8601;48.718;8.992;2023-02-14T09:48:42;23.27;;;17.23;;
16969;SDS011;8601;48.718;8.992;2023-02-14T09:51:12;20.53;;;16.50;;
16969;SDS011;8601;48.718;8.992;2023-02-14T09:53:43;23.63;;;16.87;;
16969;SDS011;8601;48.718;8.992;2023-02-14T09:56:16;21.27;;;17.07;;
16969;SDS011;8601;48.718;8.992;2023-02-14T09:58:48;23.57;;;16.93;;
16969;SDS011;8601;48.718;8.992;2023-02-14T10:01:21;20.60;;;16.10;;
16969;SDS011;8601;48.718;8.992;2023-02-14T10:06:51;19.23;;;15.67;;
16969;SDS011;8601;48.718;8.992;2023-02-14T10:09:30;20.30;;;15.90;;
16969;SDS011;8601;48.718;8.992;2023-02-14T10:12:17;20.13;;;15.40;;
16969;SDS011;8601;48.718;8.992;2023-02-14T10:14:48;17.87;;;15.33;;
16969;SDS011;8601;48.718;8.992;2023-02-14T10:17:17;19.37;;;16.00;;
16969;SDS011;8601;48.718;8.992;2023-02-14T10:19:51;18.83;;;15.17;;
16969;SDS011;8601;48.718;8.992;2023-02-14T10:22:22;19.13;;;14.20;;
16969;SDS011;8601;48.718;8.992;2023-02-14T10:24:53;21.37;;;15.43;;
16969;SDS011;8601;48.718;8.992;2023-02-14T10:27:27;21.03;;;14.43;;
16969;SDS011;8601;48.718;8.992;2023-02-14T10:29:57;19.00;;;14.67;;
16969;SDS011;8601;48.718;8.992;2023-02-14T10:32:25;17.17;;;14.60;;
16969;SDS011;8601;48.718;8.992;2023-02-14T10:35:02;16.90;;;14.40;;
16969;SDS011;8601;48.718;8.992;2023-02-14T10:37:37;20.30;;;15.43;;
16969;SDS011;8601;48.718;8.992;2023-02-14T10:40:30;18.73;;;15.17;;
16969;SDS011;8601;48.718;8.992;2023-02-14T10:43:09;19.73;;;15.93;;
16969;SDS011;8601;48.718;8.992;2023-02-14T10:45:49;19.90;;;16.87;;
16969;SDS011;8601;48.718;8.992;2023-02-14T10:48:24;19.13;;;16.17;;
16969;SDS011;8601;48.718;8.992;2023-02-14T10:51:01;19.67;;;14.90;;
16969;SDS011;8601;48.718;8.992;2023-02-14T10:53:33;17.47;;;14.77;;
16969;SDS011;8601;48.718;8.992;2023-02-14T10:56:10;17.63;;;13.30;;
16969;SDS011;8601;48.718;8.992;2023-02-14T10:58:44;18.60;;;15.50;;
16969;SDS011;8601;48.718;8.992;2023-02-14T11:01:14;20.80;;;15.07;;
16969;SDS011;8601;48.718;8.992;2023-02-14T11:03:47;19.10;;;15.97;;
16969;SDS011;8601;48.718;8.992;2023-02-14T11:06:20;20.47;;;15.97;;
16969;SDS011;8601;48.718;8.992;2023-02-14T11:08:47;21.50;;;17.20;;
16969;SDS011;8601;48.718;8.992;2023-02-14T11:11:15;16.97;;;14.30;;
16969;SDS011;8601;48.718;8.992;2023-02-14T11:13:46;17.83;;;14.40;;
16969;SDS011;8601;48.718;8.992;2023-02-14T11:16:17;17.47;;;14.17;;
16969;SDS011;8601;48.718;8.992;2023-02-14T11:19:06;17.53;;;14.33;;
16969;SDS011;8601;48.718;8.992;2023-02-14T11:21:37;17.00;;;14.37;;
16969;SDS011;8601;48.718;8.992;2023-02-14T11:24:15;16.63;;;14.13;;
16969;SDS011;8601;48.718;8.992;2023-02-14T11:26:44;15.23;;;12.90;;
16969;SDS011;8601;48.718;8.992;2023-02-14T11:29:13;17.20;;;13.60;;
16969;SDS011;8601;48.718;8.992;2023-02-14T11:31:45;15.73;;;13.93;;
16969;SDS011;8601;48.718;8.992;2023-02-14T11:34:22;17.03;;;12.97;;
16969;SDS011;8601;48.718;8.992;2023-02-14T11:36:58;15.23;;;12.73;;
16969;SDS011;8601;48.718;8.992;2023-02-14T11:39:27;14.50;;;12.90;;
16969;SDS011;8601;48.718;8.992;2023-02-14T11:41:57;16.80;;;13.77;;
16969;SDS011;8601;48.718;8.992;2023-02-14T11:44:27;16.90;;;13.20;;
16969;SDS011;8601;48.718;8.992;2023-02-14T11:46:57;13.63;;;12.13;;
16969;SDS011;8601;48.718;8.992;2023-02-14T11:49:52;15.13;;;12.27;;
16969;SDS011;8601;48.718;8.992;2023-02-14T11:52:22;15.20;;;11.73;;
16969;SDS011;8601;48.718;8.992;2023-02-14T11:54:50;14.73;;;11.73;;
16969;SDS011;8601;48.718;8.992;2023-02-14T11:57:20;13.93;;;11.90;;
16969;SDS011;8601;48.718;8.992;2023-02-14T11:59:52;14.80;;;11.70;;
16969;SDS011;8601;48.718;8.992;2023-02-14T12:02:23;14.43;;;11.40;;
16969;SDS011;8601;48.718;8.992;2023-02-14T12:04:54;13.87;;;11.57;;
16969;SDS011;8601;48.718;8.992;2023-02-14T12:07:26;13.67;;;11.33;;
16969;SDS011;8601;48.718;8.992;2023-02-14T12:12:50;12.23;;;10.93;;
16969;SDS011;8601;48.718;8.992;2023-02-14T12:15:24;16.40;;;10.93;;
16969;SDS011;8601;48.718;8.992;2023-02-14T12:18:01;12.43;;;11.10;;
16969;SDS011;8601;48.718;8.992;2023-02-14T12:20:43;16.27;;;12.43;;
16969;SDS011;8601;48.718;8.992;2023-02-14T12:23:17;14.90;;;12.37;;
16969;SDS011;8601;48.718;8.992;2023-02-14T12:25:53;13.27;;;11.67;;
16969;SDS011;8601;48.718;8.992;2023-02-14T12:28:27;13.10;;;11.67;;
16969;SDS011;8601;48.718;8.992;2023-02-14T12:31:07;13.70;;;11.77;;
16969;SDS011;8601;48.718;8.992;2023-02-14T12:33:35;13.17;;;11.77;;
16969;SDS011;8601;48.718;8.992;2023-02-14T12:36:06;16.07;;;12.03;;
16969;SDS011;8601;48.718;8.992;2023-02-14T12:38:40;16.53;;;12.83;;
16969;SDS011;8601;48.718;8.992;2023-02-14T12:41:18;18.47;;;14.20;;
16969;SDS011;8601;48.718;8.992;2023-02-14T12:43:55;18.40;;;14.83;;
16969;SDS011;8601;48.718;8.992;2023-02-14T12:46:34;16.70;;;14.50;;
16969;SDS011;8601;48.718;8.992;2023-02-14T12:52:11;19.63;;;16.73;;
16969;SDS011;8601;48.718;8.992;2023-02-14T12:54:56;22.93;;;16.43;;
16969;SDS011;8601;48.718;8.992;2023-02-14T12:57:35;21.50;;;16.40;;
16969;SDS011;8601;48.718;8.992;2023-02-14T13:00:14;20.37;;;15.73;;
16969;SDS011;8601;48.718;8.992;2023-02-14T13:06:02;21.90;;;17.20;;
16969;SDS011;8601;48.718;8.992;2023-02-14T13:08:42;20.13;;;15.60;;
16969;SDS011;8601;48.718;8.992;2023-02-14T13:11:30;19.87;;;17.00;;
16969;SDS011;8601;48.718;8.992;2023-02-14T13:14:03;18.80;;;15.80;;
16969;SDS011;8601;48.718;8.992;2023-02-14T13:16:40;20.97;;;15.63;;
16969;SDS011;8601;48.718;8.992;2023-02-14T13:19:26;22.10;;;16.97;;
16969;SDS011;8601;48.718;8.992;2023-02-14T13:21:58;19.20;;;15.00;;
16969;SDS011;8601;48.718;8.992;2023-02-14T13:24:30;20.93;;;16.73;;
16969;SDS011;8601;48.718;8.992;2023-02-14T13:27:04;20.73;;;17.20;;
16969;SDS011;8601;48.718;8.992;2023-02-14T13:29:36;19.33;;;15.50;;
16969;SDS011;8601;48.718;8.992;2023-02-14T13:32:08;20.10;;;15.73;;
16969;SDS011;8601;48.718;8.992;2023-02-14T13:34:40;19.97;;;15.73;;
16969;SDS011;8601;48.718;8.992;2023-02-14T13:37:11;22.03;;;17.30;;
16969;SDS011;8601;48.718;8.992;2023-02-14T13:39:40;19.20;;;16.67;;
16969;SDS011;8601;48.718;8.992;2023-02-14T13:42:10;21.67;;;16.43;;
16969;SDS011;8601;48.718;8.992;2023-02-14T13:44:41;20.10;;;16.53;;
16969;SDS011;8601;48.718;8.992;2023-02-14T13:47:14;18.67;;;15.77;;
16969;SDS011;8601;48.718;8.992;2023-02-14T13:49:47;20.13;;;15.00;;
16969;SDS011;8601;48.718;8.992;2023-02-14T13:55:07;19.37;;;16.87;;
16969;SDS011;8601;48.718;8.992;2023-02-14T13:57:41;23.40;;;16.37;;
16969;SDS011;8601;48.718;8.992;2023-02-14T14:03:03;17.73;;;15.27;;
16969;SDS011;8601;48.718;8.992;2023-02-14T14:05:47;17.47;;;14.43;;
16969;SDS011;8601;48.718;8.992;2023-02-14T14:14:27;16.23;;;13.93;;
16969;SDS011;8601;48.718;8.992;2023-02-14T14:17:00;19.13;;;14.60;;
16969;SDS011;8601;48.718;8.992;2023-02-14T14:19:36;16.10;;;14.40;;
16969;SDS011;8601;48.718;8.992;2023-02-14T14:22:06;17.87;;;13.90;;
16969;SDS011;8601;48.718;8.992;2023-02-14T14:24:35;16.23;;;14.10;;
16969;SDS011;8601;48.718;8.992;2023-02-14T14:27:05;15.50;;;13.87;;
16969;SDS011;8601;48.718;8.992;2023-02-14T14:29:42;16.57;;;14.40;;
16969;SDS011;8601;48.718;8.992;2023-02-14T14:32:15;18.87;;;14.27;;
16969;SDS011;8601;48.718;8.992;2023-02-14T14:34:48;17.57;;;13.70;;
16969;SDS011;8601;48.718;8.992;2023-02-14T14:37:18;16.60;;;14.50;;
16969;SDS011;8601;48.718;8.992;2023-02-14T14:39:51;17.53;;;13.97;;
16969;SDS011;8601;48.718;8.992;2023-02-14T14:42:19;15.97;;;14.27;;
16969;SDS011;8601;48.718;8.992;2023-02-14T14:44:50;16.77;;;14.90;;
16969;SDS011;8601;48.718;8.992;2023-02-14T14:47:20;16.83;;;14.83;;
16969;SDS011;8601;48.718;8.992;2023-02-14T14:49:50;16.47;;;14.67;;
16969;SDS011;8601;48.718;8.992;2023-02-14T14:55:02;17.20;;;14.10;;
16969;SDS011;8601;48.718;8.992;2023-02-14T14:57:31;17.03;;;15.03;;
16969;SDS011;8601;48.718;8.992;2023-02-14T15:00:06;18.17;;;15.20;;
16969;SDS011;8601;48.718;8.992;2023-02-14T15:02:53;17.00;;;14.93;;
16969;SDS011;8601;48.718;8.992;2023-02-14T15:05:25;17.83;;;15.67;;
16969;SDS011;8601;48.718;8.992;2023-02-14T15:07:54;18.23;;;15.53;;
16969;SDS011;8601;48.718;8.992;2023-02-14T15:10:23;21.47;;;16.23;;
16969;SDS011;8601;48.718;8.992;2023-02-14T15:12:52;16.60;;;14.77;;
16969;SDS011;8601;48.718;8.992;2023-02-14T15:15:41;18.00;;;15.37;;
16969;SDS011;8601;48.718;8.992;2023-02-14T15:18:13;17.80;;;15.63;;
16969;SDS011;8601;48.718;8.992;2023-02-14T15:20:40;20.60;;;16.07;;
16969;SDS011;8601;48.718;8.992;2023-02-14T15:23:13;19.30;;;17.07;;